createdAt,value
2018-10-01T00:00:53.631Z,0.00
2018-10-01T00:01:53.603Z,0.00
2018-10-01T00:02:54.843Z,0.00
2018-10-01T00:03:53.568Z,0.00
2018-10-01T00:04:53.548Z,0.00
2018-10-01T00:05:53.573Z,0.00
2018-10-01T00:06:53.806Z,0.00
2018-10-01T00:07:53.593Z,0.00
2018-10-01T00:08:53.465Z,0.00
2018-10-01T00:09:53.446Z,0.00
2018-10-01T00:10:53.429Z,0.00
2018-10-01T00:11:53.406Z,0.00
2018-10-01T00:12:53.392Z,0.00
2018-10-01T00:13:53.719Z,0.00
2018-10-01T00:14:53.346Z,0.00
2018-10-01T00:15:53.331Z,0.00
2018-10-01T00:16:53.310Z,0.00
2018-10-01T00:17:53.287Z,0.00
2018-10-01T00:18:53.329Z,0.00
2018-10-01T00:19:53.300Z,0.00
2018-10-01T00:20:53.528Z,0.00
2018-10-01T00:21:53.224Z,0.00
2018-10-01T00:22:53.196Z,0.00
2018-10-01T00:23:53.184Z,0.00
2018-10-01T00:24:53.165Z,0.00
2018-10-01T00:25:54.636Z,0.00
2018-10-01T00:26:53.114Z,0.00
2018-10-01T00:27:53.405Z,0.00
2018-10-01T00:28:53.377Z,0.00
2018-10-01T00:29:53.262Z,0.00
2018-10-01T00:30:53.204Z,0.00
2018-10-01T00:31:53.115Z,0.00
2018-10-01T00:32:53.008Z,0.00
2018-10-01T00:33:53.176Z,0.00
2018-10-01T00:34:53.265Z,0.00
2018-10-01T00:35:52.938Z,0.00
2018-10-01T00:36:52.914Z,0.00
2018-10-01T00:37:52.895Z,0.00
2018-10-01T00:38:52.923Z,0.00
2018-10-01T00:39:52.908Z,0.00
2018-10-01T00:40:52.909Z,0.00
2018-10-01T00:41:53.125Z,0.00
2018-10-01T00:42:52.799Z,0.00
2018-10-01T00:43:52.777Z,0.00
2018-10-01T00:44:52.757Z,0.00
2018-10-01T00:45:52.751Z,0.00
2018-10-01T00:46:52.723Z,0.00
2018-10-01T00:47:53.070Z,0.00
2018-10-01T00:48:52.679Z,0.00
2018-10-01T00:49:52.715Z,0.00
2018-10-01T00:51:52.627Z,0.00
2018-10-01T00:52:52.806Z,0.00
2018-10-01T00:53:52.882Z,0.00
2018-10-01T00:54:52.561Z,0.00
2018-10-01T00:55:52.595Z,0.00
2018-10-01T00:56:52.529Z,0.00
2018-10-01T00:57:52.511Z,0.00
2018-10-01T00:58:52.482Z,0.00
2018-10-01T00:59:52.817Z,0.00
2018-10-01T01:00:52.452Z,0.00
2018-10-01T01:01:52.678Z,0.00
2018-10-01T01:03:52.394Z,0.00
2018-10-01T01:04:52.369Z,0.00
2018-10-01T01:05:52.650Z,0.00
2018-10-01T01:06:52.432Z,0.00
2018-10-01T01:07:52.308Z,0.00
2018-10-01T01:08:52.297Z,0.00
2018-10-01T01:09:52.274Z,0.00
2018-10-01T01:10:52.256Z,0.00
2018-10-01T01:11:52.579Z,0.00
2018-10-01T01:12:52.285Z,0.00
2018-10-01T01:13:52.200Z,0.00
2018-10-01T01:14:52.174Z,0.00
2018-10-01T01:16:52.189Z,0.00
2018-10-01T01:17:52.481Z,0.00
2018-10-01T01:18:52.100Z,0.00
2018-10-01T01:19:52.081Z,0.00
2018-10-01T01:20:52.065Z,0.00
2018-10-01T01:21:52.091Z,0.00
2018-10-01T01:23:52.003Z,0.00
2018-10-01T01:24:52.305Z,0.00
2018-10-01T01:25:51.969Z,0.00
2018-10-01T01:26:52.802Z,0.00
2018-10-01T01:27:51.925Z,0.00
2018-10-01T01:28:51.909Z,0.00
2018-10-01T01:29:51.889Z,0.00
2018-10-01T01:30:51.874Z,0.00
2018-10-01T01:31:52.207Z,0.00
2018-10-01T01:32:51.891Z,0.00
2018-10-01T01:33:51.810Z,0.00
2018-10-01T01:34:51.802Z,0.00
2018-10-01T01:35:51.785Z,0.00
2018-10-01T01:36:51.755Z,0.00
2018-10-01T01:38:52.919Z,0.00
2018-10-01T01:39:52.015Z,0.00
2018-10-01T01:40:51.690Z,0.00
2018-10-01T01:41:51.666Z,0.00
2018-10-01T01:42:51.667Z,0.00
2018-10-01T01:43:51.640Z,0.00
2018-10-01T01:44:51.654Z,0.00
2018-10-01T01:45:51.642Z,0.00
2018-10-01T01:46:51.872Z,0.00
2018-10-01T01:47:51.563Z,0.00
2018-10-01T01:48:51.538Z,0.00
2018-10-01T01:49:51.511Z,0.00
2018-10-01T01:51:51.522Z,0.00
2018-10-01T01:52:51.455Z,0.00
2018-10-01T01:53:51.736Z,0.00
2018-10-01T01:55:51.417Z,0.00
2018-10-01T01:56:51.387Z,0.00
2018-10-01T01:57:51.442Z,0.00
2018-10-01T01:58:51.345Z,0.00
2018-10-01T01:59:51.336Z,0.00
2018-10-01T02:00:51.605Z,0.00
2018-10-01T02:01:51.327Z,0.00
2018-10-01T02:02:51.375Z,0.00
2018-10-01T02:03:51.558Z,0.00
2018-10-01T02:04:51.233Z,0.00
2018-10-01T02:05:51.209Z,0.00
2018-10-01T02:06:51.199Z,0.00
2018-10-01T02:07:51.476Z,0.00
2018-10-01T02:08:51.153Z,0.00
2018-10-01T02:09:51.191Z,0.00
2018-10-01T02:10:51.122Z,0.00
2018-10-01T02:11:51.096Z,0.00
2018-10-01T02:12:51.080Z,0.00
2018-10-01T02:13:51.359Z,0.00
2018-10-01T02:14:51.051Z,0.00
2018-10-01T02:15:51.105Z,0.00
2018-10-01T02:16:51.080Z,0.00
2018-10-01T02:17:50.990Z,0.00
2018-10-01T02:18:51.175Z,0.00
2018-10-01T02:19:51.267Z,0.00
2018-10-01T02:20:50.942Z,0.00
2018-10-01T02:21:50.910Z,0.00
2018-10-01T02:22:50.900Z,0.00
2018-10-01T02:24:50.854Z,0.00
2018-10-01T02:25:51.145Z,0.00
2018-10-01T02:26:50.879Z,0.00
2018-10-01T02:27:50.815Z,0.00
2018-10-01T02:28:50.796Z,0.00
2018-10-01T02:29:50.764Z,0.00
2018-10-01T02:30:50.743Z,0.00
2018-10-01T02:31:51.331Z,0.00
2018-10-01T02:32:50.712Z,0.00
2018-10-01T02:33:50.694Z,0.00
2018-10-01T02:34:50.673Z,0.00
2018-10-01T02:35:50.763Z,0.00
2018-10-01T02:36:50.636Z,0.00
2018-10-01T02:37:50.970Z,0.00
2018-10-01T02:38:50.608Z,0.00
2018-10-01T02:39:50.580Z,0.00
2018-10-01T02:41:50.542Z,0.00
2018-10-01T02:42:50.531Z,0.00
2018-10-01T02:43:51.161Z,0.00
2018-10-01T02:44:50.485Z,0.00
2018-10-01T02:45:50.469Z,0.00
2018-10-01T02:46:50.448Z,0.00
2018-10-01T02:47:50.552Z,0.00
2018-10-01T02:48:50.411Z,0.00
2018-10-01T02:49:50.459Z,0.00
2018-10-01T02:51:50.663Z,0.00
2018-10-01T02:53:50.326Z,0.00
2018-10-01T02:54:50.321Z,0.00
2018-10-01T02:55:50.503Z,0.00
2018-10-01T02:56:50.277Z,0.00
2018-10-01T02:57:50.257Z,0.00
2018-10-01T02:58:50.544Z,0.00
2018-10-01T03:00:50.506Z,0.00
2018-10-01T03:01:50.175Z,0.00
2018-10-01T03:02:50.154Z,0.00
2018-10-01T03:03:50.137Z,0.00
2018-10-01T03:04:50.333Z,0.00
2018-10-01T03:05:50.403Z,0.00
2018-10-01T03:06:50.439Z,0.00
2018-10-01T03:07:50.068Z,0.00
2018-10-01T03:08:50.052Z,0.00
2018-10-01T03:09:50.059Z,0.00
2018-10-01T03:10:50.062Z,0.00
2018-10-01T03:11:50.037Z,0.00
2018-10-01T03:12:50.271Z,0.00
2018-10-01T03:13:50.024Z,0.00
2018-10-01T03:15:49.918Z,0.00
2018-10-01T03:16:49.923Z,0.00
2018-10-01T03:17:49.931Z,0.00
2018-10-01T03:18:49.861Z,0.00
2018-10-01T03:19:50.147Z,0.00
2018-10-01T03:20:49.875Z,0.00
2018-10-01T03:21:49.818Z,0.00
2018-10-01T03:22:50.147Z,0.00
2018-10-01T03:23:49.766Z,0.00
2018-10-01T03:24:49.748Z,0.00
2018-10-01T03:25:49.734Z,0.00
2018-10-01T03:26:50.027Z,0.00
2018-10-01T03:27:49.747Z,0.00
2018-10-01T03:28:49.726Z,0.00
2018-10-01T03:29:49.939Z,0.00
2018-10-01T03:30:49.714Z,0.00
2018-10-01T03:31:49.629Z,0.00
2018-10-01T03:33:49.741Z,0.00
2018-10-01T03:34:50.046Z,0.00
2018-10-01T03:35:49.557Z,0.00
2018-10-01T03:36:49.537Z,0.00
2018-10-01T03:37:49.589Z,0.00
2018-10-01T03:38:49.532Z,0.00
2018-10-01T03:39:49.476Z,0.00
2018-10-01T03:40:49.766Z,0.00
2018-10-01T03:41:49.437Z,0.00
2018-10-01T03:42:49.417Z,0.00
2018-10-01T03:43:49.425Z,0.00
2018-10-01T03:44:49.435Z,0.00
2018-10-01T03:45:49.370Z,0.00
2018-10-01T03:46:49.655Z,0.00
2018-10-01T03:47:49.325Z,0.00
2018-10-01T03:48:49.302Z,0.00
2018-10-01T03:49:49.283Z,0.00
2018-10-01T03:50:49.262Z,0.00
2018-10-01T03:51:49.612Z,0.00
2018-10-01T03:52:49.579Z,0.00
2018-10-01T03:53:49.206Z,0.00
2018-10-01T03:55:50.372Z,0.00
2018-10-01T03:56:49.223Z,0.00
2018-10-01T03:59:49.101Z,0.00
2018-10-01T04:00:49.083Z,0.00
2018-10-01T04:01:49.106Z,0.00
2018-10-01T04:02:49.058Z,0.00
2018-10-01T04:03:49.084Z,0.00
2018-10-01T04:05:48.996Z,0.00
2018-10-01T04:06:50.237Z,0.00
2018-10-01T04:07:49.008Z,0.00
2018-10-01T04:08:49.109Z,0.00
2018-10-01T04:09:49.123Z,0.00
2018-10-01T04:10:49.476Z,0.00
2018-10-01T04:11:49.047Z,0.00
2018-10-01T04:12:49.086Z,0.00
2018-10-01T04:13:49.167Z,0.00
2018-10-01T04:14:49.192Z,0.00
2018-10-01T04:15:48.977Z,0.00
2018-10-01T04:16:49.083Z,0.00
2018-10-01T04:17:48.762Z,0.00
2018-10-01T04:18:48.744Z,0.00
2018-10-01T04:19:48.775Z,0.00
2018-10-01T04:20:48.716Z,0.00
2018-10-01T04:21:48.796Z,0.00
2018-10-01T04:22:49.979Z,0.00
2018-10-01T04:23:48.998Z,0.00
2018-10-01T04:24:48.649Z,0.00
2018-10-01T04:25:49.255Z,0.00
2018-10-01T04:26:49.144Z,0.00
2018-10-01T04:27:48.884Z,0.00
2018-10-01T04:28:48.551Z,0.00
2018-10-01T04:30:48.818Z,0.00
2018-10-01T04:31:48.496Z,0.00
2018-10-01T04:32:48.475Z,0.00
2018-10-01T04:33:48.518Z,0.00
2018-10-01T04:34:48.444Z,0.00
2018-10-01T04:35:48.429Z,0.00
2018-10-01T04:37:48.909Z,0.00
2018-10-01T04:38:48.368Z,0.00
2018-10-01T04:39:48.341Z,0.00
2018-10-01T04:41:48.384Z,0.00
2018-10-01T04:42:48.281Z,0.00
2018-10-01T04:43:48.316Z,0.00
2018-10-01T04:45:48.231Z,0.00
2018-10-01T04:46:48.229Z,0.00
2018-10-01T04:47:48.234Z,0.00
2018-10-01T04:48:48.168Z,0.00
2018-10-01T04:49:49.354Z,0.00
2018-10-01T04:50:48.125Z,4.00
2018-10-01T04:51:48.412Z,0.00
2018-10-01T04:52:48.295Z,0.00
2018-10-01T04:53:48.129Z,4.00
2018-10-01T04:54:48.302Z,0.00
2018-10-01T04:56:48.104Z,4.00
2018-10-01T04:57:48.001Z,4.00
2018-10-01T04:58:48.667Z,4.00
2018-10-01T05:00:48.044Z,4.00
2018-10-01T05:01:47.925Z,0.00
2018-10-01T05:02:47.964Z,4.00
2018-10-01T05:03:47.893Z,4.00
2018-10-01T05:04:48.217Z,8.00
2018-10-01T05:05:47.843Z,12.00
2018-10-01T05:06:47.876Z,16.00
2018-10-01T05:10:49.295Z,28.00
2018-10-01T05:11:47.795Z,36.00
2018-10-01T05:12:47.709Z,36.00
2018-10-01T05:13:47.687Z,40.00
2018-10-01T05:14:47.716Z,40.00
2018-10-01T05:15:47.649Z,52.00
2018-10-01T05:16:48.091Z,64.00
2018-10-01T05:18:47.669Z,84.00
2018-10-01T05:19:47.576Z,96.00
2018-10-01T05:20:47.720Z,104.00
2018-10-01T05:21:47.629Z,120.00
2018-10-01T05:22:47.921Z,136.00
2018-10-01T05:23:48.203Z,152.00
2018-10-01T05:24:47.482Z,160.00
2018-10-01T05:25:47.474Z,180.00
2018-10-01T05:27:48.681Z,196.00
2018-10-01T05:28:47.410Z,216.00
2018-10-01T05:29:47.927Z,224.00
2018-10-01T05:30:47.366Z,232.00
2018-10-01T05:31:47.454Z,244.00
2018-10-01T05:32:47.493Z,248.00
2018-10-01T05:33:47.305Z,260.00
2018-10-01T05:34:47.332Z,276.00
2018-10-01T05:36:47.624Z,300.00
2018-10-01T05:38:47.225Z,296.00
2018-10-01T05:39:47.190Z,296.00
2018-10-01T05:40:47.190Z,320.00
2018-10-01T05:41:47.160Z,368.00
2018-10-01T05:42:47.544Z,416.00
2018-10-01T05:44:47.102Z,464.00
2018-10-01T05:45:47.143Z,512.00
2018-10-01T05:46:47.112Z,516.00
2018-10-01T05:47:47.042Z,524.00
2018-10-01T05:48:47.055Z,536.00
2018-10-01T05:51:47.315Z,644.00
2018-10-01T05:52:46.953Z,672.00
2018-10-01T05:53:46.979Z,696.00
2018-10-01T05:54:46.965Z,740.00
2018-10-01T05:55:46.893Z,752.00
2018-10-01T05:56:47.021Z,808.00
2018-10-01T05:57:46.903Z,860.00
2018-10-01T05:58:48.400Z,888.00
2018-10-01T06:00:46.980Z,1032.00
2018-10-01T06:01:46.941Z,1076.00
2018-10-01T06:02:47.935Z,1120.00
2018-10-01T06:03:48.514Z,1164.00
2018-10-01T06:04:47.997Z,1236.00
2018-10-01T06:05:48.718Z,1256.00
2018-10-01T06:06:46.692Z,1252.00
2018-10-01T06:07:46.755Z,1256.00
2018-10-01T06:08:46.743Z,1288.00
2018-10-01T06:09:46.635Z,1232.00
2018-10-01T06:10:46.651Z,1292.00
2018-10-01T06:11:46.596Z,1324.00
2018-10-01T06:12:46.996Z,1376.00
2018-10-01T06:13:46.597Z,1448.00
2018-10-01T06:14:46.583Z,1500.00
2018-10-01T06:15:46.639Z,1568.00
2018-10-01T06:16:46.805Z,1564.00
2018-10-01T06:17:46.493Z,1460.00
2018-10-01T06:18:46.455Z,1524.00
2018-10-01T06:19:46.734Z,1580.00
2018-10-01T06:20:46.419Z,1632.00
2018-10-01T06:21:46.451Z,1708.00
2018-10-01T06:22:46.443Z,1704.00
2018-10-01T06:23:46.370Z,1748.00
2018-10-01T06:24:46.353Z,1792.00
2018-10-01T06:25:46.331Z,1840.00
2018-10-01T06:26:46.607Z,1880.00
2018-10-01T06:27:46.588Z,1888.00
2018-10-01T06:28:46.340Z,1856.00
2018-10-01T06:29:46.251Z,1768.00
2018-10-01T06:30:46.248Z,1856.00
2018-10-01T06:31:46.213Z,1812.00
2018-10-01T06:32:46.498Z,1880.00
2018-10-01T06:33:46.234Z,1860.00
2018-10-01T06:34:46.178Z,1888.00
2018-10-01T06:35:46.141Z,1852.00
2018-10-01T06:36:46.147Z,1828.00
2018-10-01T06:37:46.181Z,1900.00
2018-10-01T06:38:46.407Z,1860.00
2018-10-01T06:39:46.312Z,1680.00
2018-10-01T06:40:46.255Z,1588.00
2018-10-01T06:41:46.083Z,1612.00
2018-10-01T06:42:46.008Z,1748.00
2018-10-01T06:43:45.991Z,1752.00
2018-10-01T06:44:46.370Z,1892.00
2018-10-01T06:45:46.335Z,1832.00
2018-10-01T06:46:45.960Z,1964.00
2018-10-01T06:47:45.969Z,1892.00
2018-10-01T06:48:46.228Z,1992.00
2018-10-01T06:49:45.880Z,2112.00
2018-10-01T06:51:46.142Z,2032.00
2018-10-01T06:52:45.874Z,2016.00
2018-10-01T06:53:45.806Z,2136.00
2018-10-01T06:54:45.837Z,2144.00
2018-10-01T06:55:45.957Z,2212.00
2018-10-01T06:56:45.801Z,2392.00
2018-10-01T06:57:46.032Z,2408.00
2018-10-01T06:58:45.734Z,2156.00
2018-10-01T06:59:45.698Z,2132.00
2018-10-01T07:00:45.732Z,2088.00
2018-10-01T07:01:45.737Z,2108.00
2018-10-01T07:02:45.697Z,2200.00
2018-10-01T07:03:45.926Z,2320.00
2018-10-01T07:04:45.647Z,2328.00
2018-10-01T07:06:45.643Z,2148.00
2018-10-01T07:07:45.657Z,2080.00
2018-10-01T07:08:45.538Z,2132.00
2018-10-01T07:09:45.827Z,2088.00
2018-10-01T07:10:45.562Z,2064.00
2018-10-01T07:11:46.135Z,2016.00
2018-10-01T07:12:45.677Z,2128.00
2018-10-01T07:13:45.514Z,2236.00
2018-10-01T07:14:46.831Z,2188.00
2018-10-01T07:15:45.702Z,2264.00
2018-10-01T07:16:46.028Z,2232.00
2018-10-01T07:17:45.536Z,2240.00
2018-10-01T07:18:45.472Z,2244.00
2018-10-01T07:19:45.633Z,2248.00
2018-10-01T07:21:45.476Z,2372.00
2018-10-01T07:22:45.435Z,2368.00
2018-10-01T07:23:45.574Z,2372.00
2018-10-01T07:24:45.279Z,2468.00
2018-10-01T07:25:45.278Z,2456.00
2018-10-01T07:26:45.216Z,2672.00
2018-10-01T07:27:45.205Z,2684.00
2018-10-01T07:29:45.964Z,2556.00
2018-10-01T07:30:45.490Z,2464.00
2018-10-01T07:31:45.120Z,2456.00
2018-10-01T07:32:45.119Z,2448.00
2018-10-01T07:33:45.091Z,2348.00
2018-10-01T07:34:45.330Z,2420.00
2018-10-01T07:35:45.044Z,2500.00
2018-10-01T07:36:45.414Z,2624.00
2018-10-01T07:37:45.012Z,2472.00
2018-10-01T07:38:45.297Z,2468.00
2018-10-01T07:39:45.381Z,2672.00
2018-10-01T07:40:45.093Z,2592.00
2018-10-01T07:41:44.943Z,2860.00
2018-10-01T07:42:44.925Z,2712.00
2018-10-01T07:43:45.270Z,2460.00
2018-10-01T07:45:44.931Z,2212.00
2018-10-01T07:46:44.969Z,2284.00
2018-10-01T07:47:44.891Z,2416.00
2018-10-01T07:48:44.826Z,2496.00
2018-10-01T07:50:45.212Z,2784.00
2018-10-01T07:51:44.855Z,2728.00
2018-10-01T07:52:44.829Z,2864.00
2018-10-01T07:53:44.849Z,3092.00
2018-10-01T07:55:44.716Z,3804.00
2018-10-01T07:56:44.738Z,4052.00
2018-10-01T07:57:45.084Z,4420.00
2018-10-01T07:58:44.706Z,4468.00
2018-10-01T07:59:44.766Z,4560.00
2018-10-01T08:01:44.995Z,4368.00
2018-10-01T08:02:45.096Z,4220.00
2018-10-01T08:03:45.059Z,3860.00
2018-10-01T08:04:44.640Z,3600.00
2018-10-01T08:05:44.595Z,3716.00
2018-10-01T08:06:45.801Z,3976.00
2018-10-01T08:07:44.628Z,3752.00
2018-10-01T08:08:44.573Z,3716.00
2018-10-01T08:09:44.864Z,3268.00
2018-10-01T08:10:44.501Z,2764.00
2018-10-01T08:11:44.538Z,2548.00
2018-10-01T08:12:44.504Z,2148.00
2018-10-01T08:13:44.489Z,2300.00
2018-10-01T08:14:44.369Z,2580.00
2018-10-01T08:15:44.730Z,2520.00
2018-10-01T08:18:44.996Z,2332.00
2018-10-01T08:19:44.274Z,2468.00
2018-10-01T08:20:44.263Z,2540.00
2018-10-01T08:21:44.845Z,2776.00
2018-10-01T08:22:44.274Z,2908.00
2018-10-01T08:24:44.230Z,3076.00
2018-10-01T08:25:44.170Z,3456.00
2018-10-01T08:26:44.206Z,3428.00
2018-10-01T08:27:44.493Z,4020.00
2018-10-01T08:28:44.220Z,4080.00
2018-10-01T08:29:44.210Z,3824.00
2018-10-01T08:30:44.090Z,3832.00
2018-10-01T08:31:44.139Z,4136.00
2018-10-01T08:32:44.061Z,4208.00
2018-10-01T08:34:44.629Z,4308.00
2018-10-01T08:37:44.643Z,4376.00
2018-10-01T08:38:44.027Z,4584.00
2018-10-01T08:39:43.934Z,4232.00
2018-10-01T08:40:43.918Z,4520.00
2018-10-01T08:41:44.199Z,5008.00
2018-10-01T08:42:43.900Z,4848.00
2018-10-01T08:43:43.893Z,4848.00
2018-10-01T08:44:43.898Z,4476.00
2018-10-01T08:45:43.834Z,5048.00
2018-10-01T08:46:43.815Z,5756.00
2018-10-01T08:47:43.889Z,5444.00
2018-10-01T08:48:44.090Z,5656.00
2018-10-01T08:49:44.548Z,6264.00
2018-10-01T08:50:43.859Z,4860.00
2018-10-01T08:51:43.756Z,5948.00
2018-10-01T08:52:43.719Z,5668.00
2018-10-01T08:53:43.691Z,4660.00
2018-10-01T08:54:43.677Z,4888.00
2018-10-01T08:55:43.961Z,4464.00
2018-10-01T08:56:43.648Z,5100.00
2018-10-01T08:57:43.625Z,5416.00
2018-10-01T08:59:43.605Z,5980.00
2018-10-01T09:00:43.629Z,5892.00
2018-10-01T09:01:43.565Z,6340.00
2018-10-01T09:02:43.634Z,5864.00
2018-10-01T09:03:43.531Z,6268.00
2018-10-01T09:04:43.522Z,6120.00
2018-10-01T09:05:43.524Z,6336.00
2018-10-01T09:06:43.570Z,5988.00
2018-10-01T09:07:43.472Z,6256.00
2018-10-01T09:08:43.751Z,6276.00
2018-10-01T09:10:43.499Z,6488.00
2018-10-01T09:12:43.447Z,7664.00
2018-10-01T09:13:43.375Z,7444.00
2018-10-01T09:14:43.484Z,7424.00
2018-10-01T09:15:43.693Z,7848.00
2018-10-01T09:16:43.623Z,7908.00
2018-10-01T09:17:43.305Z,8368.00
2018-10-01T09:18:43.413Z,7760.00
2018-10-01T09:19:43.385Z,8756.00
2018-10-01T09:20:43.313Z,8540.00
2018-10-01T09:21:43.538Z,8732.00
2018-10-01T09:22:44.775Z,8756.00
2018-10-01T09:24:43.244Z,8440.00
2018-10-01T09:25:43.175Z,8376.00
2018-10-01T09:26:43.166Z,8652.00
2018-10-01T09:27:43.142Z,8520.00
2018-10-01T09:28:43.126Z,9160.00
2018-10-01T09:29:43.757Z,8732.00
2018-10-01T09:31:43.247Z,9344.00
2018-10-01T09:32:43.074Z,8184.00
2018-10-01T09:33:43.470Z,7704.00
2018-10-01T09:34:43.052Z,7812.00
2018-10-01T09:35:43.476Z,6400.00
2018-10-01T09:36:43.009Z,6572.00
2018-10-01T09:37:43.012Z,6564.00
2018-10-01T09:39:43.009Z,5288.00
2018-10-01T09:40:42.946Z,5728.00
2018-10-01T09:41:43.285Z,5432.00
2018-10-01T09:42:42.914Z,5540.00
2018-10-01T09:43:42.899Z,5144.00
2018-10-01T09:44:42.886Z,4564.00
2018-10-01T09:45:42.919Z,4224.00
2018-10-01T09:46:42.862Z,4380.00
2018-10-01T09:49:43.116Z,4024.00
2018-10-01T09:50:42.797Z,4736.00
2018-10-01T09:51:42.819Z,4016.00
2018-10-01T09:52:42.762Z,4628.00
2018-10-01T09:53:42.881Z,4808.00
2018-10-01T09:54:43.037Z,5920.00
2018-10-01T09:55:42.762Z,6476.00
2018-10-01T09:56:42.808Z,5760.00
2018-10-01T09:57:42.788Z,5908.00
2018-10-01T09:58:42.763Z,0.00
2018-10-01T09:59:42.719Z,9920.00
2018-10-01T10:00:42.688Z,6636.00
2018-10-01T10:01:43.026Z,6576.00
2018-10-01T10:02:42.809Z,7292.00
2018-10-01T10:03:42.605Z,8192.00
2018-10-01T10:04:42.647Z,9596.00
2018-10-01T10:06:42.621Z,9696.00
2018-10-01T10:07:42.887Z,8316.00
2018-10-01T10:08:42.639Z,8900.00
2018-10-01T10:10:42.547Z,8576.00
2018-10-01T10:12:42.534Z,15392.00
2018-10-01T10:13:42.456Z,13920.00
2018-10-01T10:14:42.797Z,19296.00
2018-10-01T10:15:42.465Z,11908.00
2018-10-01T10:16:42.609Z,7748.00
2018-10-01T10:17:42.455Z,12384.00
2018-10-01T10:18:42.451Z,14080.00
2018-10-01T10:19:42.765Z,4292.00
2018-10-01T10:21:42.666Z,6920.00
2018-10-01T10:22:42.353Z,10108.00
2018-10-01T10:23:42.390Z,12416.00
2018-10-01T10:24:42.379Z,14368.00
2018-10-01T10:26:42.317Z,17440.00
2018-10-01T10:27:42.333Z,21152.00
2018-10-01T10:28:42.583Z,16928.00
2018-10-01T10:29:42.269Z,9488.00
2018-10-01T10:30:42.317Z,6256.00
2018-10-01T10:31:42.354Z,4920.00
2018-10-01T10:32:42.261Z,4692.00
2018-10-01T10:33:42.286Z,4704.00
2018-10-01T10:34:42.209Z,4176.00
2018-10-01T10:35:43.536Z,3528.00
2018-10-01T10:36:42.197Z,3132.00
2018-10-01T10:37:42.182Z,2748.00
2018-10-01T10:38:42.177Z,3132.00
2018-10-01T10:39:42.307Z,3660.00
2018-10-01T10:40:42.685Z,4672.00
2018-10-01T10:41:42.226Z,5812.00
2018-10-01T10:42:42.425Z,5664.00
2018-10-01T10:43:42.107Z,3916.00
2018-10-01T10:44:42.162Z,3224.00
2018-10-01T10:45:42.382Z,3060.00
2018-10-01T10:46:42.070Z,3112.00
2018-10-01T10:47:42.440Z,3184.00
2018-10-01T10:48:42.048Z,3176.00
2018-10-01T10:49:42.795Z,3076.00
2018-10-01T10:50:42.160Z,3700.00
2018-10-01T10:51:42.006Z,4656.00
2018-10-01T10:52:41.998Z,6380.00
2018-10-01T10:53:42.466Z,7024.00
2018-10-01T10:54:41.964Z,7376.00
2018-10-01T10:55:42.387Z,8212.00
2018-10-01T10:56:42.235Z,9200.00
2018-10-01T10:57:41.948Z,17472.00
2018-10-01T10:58:41.909Z,10884.00
2018-10-01T10:59:42.284Z,7264.00
2018-10-01T11:00:41.928Z,5560.00
2018-10-01T11:01:41.906Z,4392.00
2018-10-01T11:02:42.205Z,4444.00
2018-10-01T11:03:41.848Z,4044.00
2018-10-01T11:04:41.901Z,2680.00
2018-10-01T11:05:43.921Z,2048.00
2018-10-01T11:06:43.106Z,2336.00
2018-10-01T11:07:41.936Z,3028.00
2018-10-01T11:08:42.308Z,4204.00
2018-10-01T11:09:41.778Z,37376.00
2018-10-01T11:11:42.116Z,37696.00
2018-10-01T11:12:41.762Z,36736.00
2018-10-01T11:13:42.013Z,36192.00
2018-10-01T11:14:41.855Z,36960.00
2018-10-01T11:15:41.949Z,37792.00
2018-10-01T11:16:41.805Z,38816.00
2018-10-01T11:17:41.769Z,36864.00
2018-10-01T11:18:41.888Z,25792.00
2018-10-01T11:19:41.750Z,7484.00
2018-10-01T11:20:42.055Z,37312.00
2018-10-01T11:21:42.003Z,32384.00
2018-10-01T11:22:41.692Z,37248.00
2018-10-01T11:23:41.620Z,6036.00
2018-10-01T11:24:41.620Z,4048.00
2018-10-01T11:25:41.547Z,4036.00
2018-10-01T11:26:41.888Z,3768.00
2018-10-01T11:27:41.949Z,2680.00
2018-10-01T11:28:42.199Z,2188.00
2018-10-01T11:29:41.493Z,3176.00
2018-10-01T11:30:41.508Z,3168.00
2018-10-01T11:31:41.769Z,3008.00
2018-10-01T11:32:41.814Z,2564.00
2018-10-01T11:33:41.579Z,2736.00
2018-10-01T11:34:41.564Z,2984.00
2018-10-01T11:35:41.453Z,2824.00
2018-10-01T11:36:41.412Z,2752.00
2018-10-01T11:37:41.451Z,3160.00
2018-10-01T11:38:41.696Z,4284.00
2018-10-01T11:39:41.479Z,17344.00
2018-10-01T11:40:41.371Z,7056.00
2018-10-01T11:41:41.914Z,19552.00
2018-10-01T11:43:41.319Z,17856.00
2018-10-01T11:44:41.297Z,16384.00
2018-10-01T11:45:41.593Z,15104.00
2018-10-01T11:47:41.277Z,17760.00
2018-10-01T11:48:41.248Z,18080.00
2018-10-01T11:49:41.287Z,19264.00
2018-10-01T11:50:41.382Z,19392.00
2018-10-01T11:51:41.368Z,10536.00
2018-10-01T11:52:41.550Z,6932.00
2018-10-01T11:53:41.192Z,5852.00
2018-10-01T11:54:41.179Z,3684.00
2018-10-01T11:55:41.302Z,4380.00
2018-10-01T11:56:41.206Z,3852.00
2018-10-01T11:57:41.446Z,4352.00
2018-10-01T11:58:41.131Z,5472.00
2018-10-01T11:59:41.424Z,5044.00
2018-10-01T12:00:41.618Z,5092.00
2018-10-01T12:01:41.148Z,4204.00
2018-10-01T12:02:41.090Z,4460.00
2018-10-01T12:03:41.289Z,4628.00
2018-10-01T12:04:41.098Z,3316.00
2018-10-01T12:05:41.087Z,1748.00
2018-10-01T12:06:41.985Z,1080.00
2018-10-01T12:07:41.281Z,772.00
2018-10-01T12:08:41.312Z,636.00
2018-10-01T12:09:41.106Z,616.00
2018-10-01T12:10:40.984Z,592.00
2018-10-01T12:11:40.978Z,644.00
2018-10-01T12:12:41.305Z,804.00
2018-10-01T12:13:40.943Z,816.00
2018-10-01T12:14:40.928Z,764.00
2018-10-01T12:15:41.071Z,864.00
2018-10-01T12:16:40.953Z,740.00
2018-10-01T12:17:40.940Z,720.00
2018-10-01T12:18:40.988Z,1020.00
2018-10-01T12:19:41.207Z,1076.00
2018-10-01T12:22:40.812Z,1692.00
2018-10-01T12:23:40.808Z,1944.00
2018-10-01T12:27:41.488Z,3128.00
2018-10-01T12:28:40.708Z,3084.00
2018-10-01T12:29:40.927Z,3008.00
2018-10-01T12:32:41.843Z,2336.00
2018-10-01T12:33:41.210Z,2072.00
2018-10-01T12:34:40.632Z,1672.00
2018-10-01T12:35:40.670Z,1272.00
2018-10-01T12:36:40.573Z,1072.00
2018-10-01T12:37:40.606Z,1024.00
2018-10-01T12:39:41.522Z,1348.00
2018-10-01T12:40:40.505Z,1596.00
2018-10-01T12:41:40.663Z,1856.00
2018-10-01T12:42:40.530Z,2768.00
2018-10-01T12:43:40.468Z,3112.00
2018-10-01T12:44:40.902Z,2756.00
2018-10-01T12:46:40.446Z,1572.00
2018-10-01T12:47:40.391Z,1812.00
2018-10-01T12:48:40.970Z,2476.00
2018-10-01T12:50:40.326Z,4380.00
2018-10-01T12:52:41.878Z,3868.00
2018-10-01T12:53:40.974Z,2944.00
2018-10-01T12:54:40.486Z,2344.00
2018-10-01T12:56:40.228Z,1324.00
2018-10-01T12:57:41.272Z,1464.00
2018-10-01T12:58:40.492Z,1660.00
2018-10-01T13:00:40.346Z,1420.00
2018-10-01T13:01:41.006Z,1436.00
2018-10-01T13:02:40.119Z,1528.00
2018-10-01T13:03:40.108Z,1796.00
2018-10-01T13:04:40.489Z,1708.00
2018-10-01T13:05:40.230Z,1512.00
2018-10-01T13:07:40.089Z,1060.00
2018-10-01T13:08:40.080Z,1028.00
2018-10-01T13:09:40.246Z,1060.00
2018-10-01T13:11:40.499Z,832.00
2018-10-01T13:12:40.411Z,832.00
2018-10-01T13:13:40.339Z,880.00
2018-10-01T13:14:39.915Z,900.00
2018-10-01T13:15:39.938Z,1164.00
2018-10-01T13:16:39.873Z,1316.00
2018-10-01T13:17:40.114Z,1472.00
2018-10-01T13:18:40.338Z,1480.00
2018-10-01T13:19:39.879Z,1456.00
2018-10-01T13:20:39.797Z,1740.00
2018-10-01T13:21:39.789Z,1916.00
2018-10-01T13:22:39.802Z,2024.00
2018-10-01T13:23:39.848Z,2236.00
2018-10-01T13:24:41.526Z,2500.00
2018-10-01T13:25:40.076Z,2444.00
2018-10-01T13:26:39.708Z,2960.00
2018-10-01T13:27:39.681Z,3512.00
2018-10-01T13:29:39.796Z,6236.00
2018-10-01T13:30:40.005Z,6596.00
2018-10-01T13:31:39.657Z,7116.00
2018-10-01T13:32:39.889Z,8108.00
2018-10-01T13:34:39.550Z,5824.00
2018-10-01T13:35:39.540Z,5084.00
2018-10-01T13:36:39.972Z,4092.00
2018-10-01T13:37:39.592Z,3756.00
2018-10-01T13:38:39.479Z,3408.00
2018-10-01T13:40:40.221Z,3328.00
2018-10-01T13:41:39.454Z,3348.00
2018-10-01T13:42:39.508Z,3060.00
2018-10-01T13:43:39.393Z,2684.00
2018-10-01T13:44:39.381Z,2536.00
2018-10-01T13:45:39.358Z,2512.00
2018-10-01T13:46:39.592Z,2616.00
2018-10-01T13:47:40.694Z,2636.00
2018-10-01T13:48:39.414Z,2456.00
2018-10-01T13:50:39.272Z,2380.00
2018-10-01T13:51:39.270Z,2444.00
2018-10-01T13:52:39.323Z,2320.00
2018-10-01T13:53:39.237Z,2516.00
2018-10-01T13:55:39.962Z,3172.00
2018-10-01T13:56:39.178Z,3424.00
2018-10-01T13:58:39.415Z,3184.00